Hartford, Connecticut
Current Conditions -  °F | °C
As of 10:53 PM on Tuesday 27 Jan 2015 (Local Time) from KHFD Reporting Station
Haze Haze  
Wind Chill: -17°   Ceiling: 4300
Heat Index: -11°   Visibility: 5mi
Dew Point: -14°   Wind: 8mph
Humidity: 74%   Direction: 300°WNW
Pressure: 29.79"   Gusts: 24mph
Location:  41.76°N, 72.67°W
Report Text: KHFD 280353Z 30007G21KT 260V330 5SM HZ OVC043 M11/M14 A2979 RMK AO2 SLP087 T11061144 $
Loading
Personal Weather Stations






























Interactive Weather Map New forecast layout! Learn more

10-Day Weather Forecast

Advertisements
Track Severe Weather on mobile